Time;durP1;ratioP1;P1;durP2;ratioP2;P2;SDS_P1;SDS_P2;PMS_P1;PMS_P2;Temp;Humidity;BMP_temperature;BMP_pressure;BME280_temperature;BME280_humidity;BME280_pressure;Samples;Min_cycle;Max_cycle;Signal;HPM_P1;HPM_P2
2023/05/18 00:02:16;;;;;;;12.70;4.07;;;10.40;1.00;;;;;;4938788;29;20188;-83
2023/05/18 00:04:42;;;;;;;11.73;4.20;;;10.40;1.00;;;;;;4941227;29;20239;-82
2023/05/18 00:07:08;;;;;;;6.83;3.30;;;10.30;1.00;;;;;;4940481;29;20640;-82
2023/05/18 00:09:35;;;;;;;12.03;3.70;;;10.30;1.00;;;;;;4942885;29;20181;-81
2023/05/18 00:12:03;;;;;;;11.33;3.77;;;10.30;1.00;;;;;;4940451;29;20173;-83
2023/05/18 00:14:29;;;;;;;12.37;3.63;;;10.30;1.00;;;;;;4938947;29;20187;-83
2023/05/18 00:16:55;;;;;;;9.97;3.47;;;10.30;1.00;;;;;;4939213;29;20177;-83
2023/05/18 00:19:22;;;;;;;10.07;3.10;;;10.20;1.00;;;;;;4938678;29;20201;-83
2023/05/18 00:21:50;;;;;;;8.87;3.67;;;10.20;1.00;;;;;;4937704;29;20574;-82
2023/05/18 00:24:16;;;;;;;12.40;4.60;;;10.10;1.00;;;;;;4938570;29;20555;-81
2023/05/18 00:26:43;;;;;;;15.23;4.23;;;10.10;1.00;;;;;;4937482;29;20280;-83
2023/05/18 00:29:09;;;;;;;12.57;3.77;;;10.00;1.00;;;;;;4936649;29;20187;-81
2023/05/18 00:31:37;;;;;;;10.83;3.47;;;10.00;1.00;;;;;;4936824;29;20267;-82
2023/05/18 00:34:10;;;;;;;13.03;3.87;;;10.00;1.00;;;;;;4936673;29;20220;-82
2023/05/18 00:36:36;;;;;;;10.10;3.83;;;10.00;1.00;;;;;;4937066;29;20177;-83
2023/05/18 00:39:03;;;;;;;8.57;3.17;;;9.90;1.00;;;;;;4936567;29;20320;-84
2023/05/18 00:41:29;;;;;;;11.57;3.50;;;9.90;1.00;;;;;;4937489;29;20188;-82
2023/05/18 00:43:57;;;;;;;7.90;3.27;;;9.80;1.00;;;;;;4938822;29;20265;-82
2023/05/18 00:46:24;;;;;;;8.83;3.47;;;9.80;1.00;;;;;;4936431;29;20225;-83
2023/05/18 00:48:51;;;;;;;9.83;3.30;;;9.70;1.00;;;;;;4936598;29;20664;-84
2023/05/18 00:51:22;;;;;;;12.17;4.00;;;9.70;1.00;;;;;;4940021;29;20237;-83
2023/05/18 00:53:49;;;;;;;10.17;3.13;;;9.70;1.00;;;;;;4941523;29;20173;-83
2023/05/18 00:56:15;;;;;;;11.30;3.80;;;9.70;1.00;;;;;;4937039;29;20561;-82
2023/05/18 00:58:42;;;;;;;12.60;3.93;;;9.60;1.00;;;;;;4937857;29;20609;-84
2023/05/18 01:01:08;;;;;;;10.73;3.57;;;9.60;1.00;;;;;;4937185;29;20271;-82
2023/05/18 01:03:37;;;;;;;11.40;3.30;;;9.60;1.00;;;;;;4936363;29;20221;-83
2023/05/18 01:06:08;;;;;;;14.13;4.17;;;9.60;1.00;;;;;;4936972;29;20205;-81
2023/05/18 01:08:35;;;;;;;10.17;3.27;;;9.60;1.00;;;;;;4936859;29;20181;-84
2023/05/18 01:11:17;;;;;;;10.00;3.60;;;9.60;1.00;;;;;;4936262;29;20669;-84
2023/05/18 01:14:03;;;;;;;10.00;3.90;;;9.60;1.00;;;;;;4936155;29;21046;-83
2023/05/18 01:16:40;;;;;;;8.43;3.77;;;9.50;1.00;;;;;;4907025;29;20724;-85
2023/05/18 01:19:27;;;;;;;10.70;3.97;;;9.50;1.00;;;;;;4937598;29;20180;-83
2023/05/18 01:22:07;;;;;;;13.00;3.90;;;9.50;1.00;;;;;;4936033;29;20540;-82
2023/05/18 01:24:47;;;;;;;9.20;4.07;;;9.50;1.00;;;;;;4936051;29;20191;-83
2023/05/18 01:27:16;;;;;;;9.60;3.80;;;9.40;1.00;;;;;;4937525;29;20207;-83
2023/05/18 01:29:44;;;;;;;9.10;3.77;;;9.40;1.00;;;;;;4945458;28;20161;-83
2023/05/18 01:32:21;;;;;;;11.33;4.13;;;9.30;1.00;;;;;;4961373;28;20165;-82
2023/05/18 01:34:47;;;;;;;10.57;3.43;;;9.30;1.00;;;;;;4959762;28;20180;-83
2023/05/18 01:37:13;;;;;;;10.43;3.90;;;9.30;1.00;;;;;;4959625;28;20181;-82
2023/05/18 01:39:40;;;;;;;8.57;3.57;;;9.40;1.00;;;;;;4934649;29;20184;-82
2023/05/18 01:42:11;;;;;;;10.37;3.87;;;9.30;1.00;;;;;;4934490;29;20583;-83
2023/05/18 01:44:49;;;;;;;10.27;3.73;;;9.30;1.00;;;;;;4936137;29;20183;-84
2023/05/18 01:47:16;;;;;;;9.23;3.37;;;9.30;1.00;;;;;;4940163;29;20244;-82
2023/05/18 01:50:03;;;;;;;11.53;3.87;;;9.20;1.00;;;;;;4957261;28;20157;-82
2023/05/18 01:52:59;;;;;;;12.67;4.10;;;9.20;1.00;;;;;;4958864;29;20173;-83
2023/05/18 01:55:29;;;;;;;8.53;3.87;;;9.20;1.00;;;;;;4944776;29;20196;-82
2023/05/18 01:57:57;;;;;;;14.00;4.20;;;9.10;1.00;;;;;;4939042;29;20260;-81
2023/05/18 02:00:26;;;;;;;9.73;4.07;;;9.10;1.00;;;;;;4936688;29;20184;-82
2023/05/18 02:03:12;;;;;;;8.93;3.40;;;9.10;1.00;;;;;;4936401;29;20287;-84
2023/05/18 02:05:37;;;;;;;14.10;4.37;;;9.00;1.00;;;;;;4936063;29;20232;-83
2023/05/18 02:08:03;;;;;;;7.57;3.97;;;9.00;1.00;;;;;;4935934;29;20580;-82
2023/05/18 02:10:29;;;;;;;9.73;4.27;;;9.00;1.00;;;;;;4935168;29;20217;-82
2023/05/18 02:12:55;;;;;;;11.47;4.73;;;8.90;1.00;;;;;;4935515;29;20208;-81
2023/05/18 02:15:21;;;;;;;11.63;4.23;;;8.90;1.00;;;;;;4935530;29;20268;-82
2023/05/18 02:17:46;;;;;;;9.67;3.97;;;8.90;1.00;;;;;;4935990;29;20611;-82
2023/05/18 02:20:17;;;;;;;8.90;3.90;;;8.90;1.00;;;;;;4934659;29;20181;-82
2023/05/18 02:22:43;;;;;;;9.77;3.30;;;8.80;1.00;;;;;;4935977;29;20177;-82
2023/05/18 02:25:09;;;;;;;9.67;3.80;;;8.80;1.00;;;;;;4933469;29;20575;-82
2023/05/18 02:27:35;;;;;;;10.00;4.50;;;8.80;1.00;;;;;;4935489;29;20209;-83
2023/05/18 02:30:04;;;;;;;9.23;3.80;;;8.80;1.00;;;;;;4935652;29;20177;-82
2023/05/18 02:32:37;;;;;;;10.50;4.20;;;8.80;1.00;;;;;;4935330;29;20244;-83
2023/05/18 02:35:04;;;;;;;9.57;4.10;;;8.80;1.00;;;;;;4937119;29;20181;-82
2023/05/18 02:37:33;;;;;;;14.60;4.73;;;8.70;1.00;;;;;;4937171;29;20180;-82
2023/05/18 02:39:59;;;;;;;11.67;4.00;;;8.70;1.00;;;;;;4944305;29;20181;-81
2023/05/18 02:42:26;;;;;;;9.33;3.93;;;8.70;1.00;;;;;;4946022;29;20180;-82
2023/05/18 02:44:52;;;;;;;9.93;4.10;;;8.70;1.00;;;;;;4950170;29;20205;-83
2023/05/18 02:47:17;;;;;;;8.43;3.83;;;8.70;1.00;;;;;;4953012;29;20231;-82
2023/05/18 02:49:43;;;;;;;13.43;4.37;;;8.60;1.00;;;;;;4951298;29;20177;-82
2023/05/18 02:52:09;;;;;;;9.63;4.13;;;8.60;1.00;;;;;;4951803;29;20184;-82
2023/05/18 02:54:35;;;;;;;8.10;4.30;;;8.60;1.00;;;;;;4950944;29;20196;-82
2023/05/18 02:57:00;;;;;;;10.23;4.20;;;8.60;1.00;;;;;;4954079;29;20183;-82
2023/05/18 02:59:26;;;;;;;7.67;3.90;;;8.60;1.00;;;;;;4952570;29;20208;-82
2023/05/18 03:01:52;;;;;;;9.27;4.57;;;8.50;1.00;;;;;;4944673;29;20658;-81
2023/05/18 03:04:18;;;;;;;10.17;4.40;;;8.60;2.60;;;;;;4943506;29;20168;-82
2023/05/18 03:06:46;;;;;;;11.03;4.83;;;8.60;1.00;;;;;;4939113;29;20212;-83
2023/05/18 03:09:12;;;;;;;11.47;4.40;;;8.60;1.70;;;;;;4940752;29;20279;-83
2023/05/18 03:11:37;;;;;;;11.27;4.37;;;8.60;1.00;;;;;;4937754;29;20602;-82
2023/05/18 03:14:03;;;;;;;10.17;4.73;;;8.50;1.00;;;;;;4935390;29;20181;-82
2023/05/18 03:16:31;;;;;;;10.87;4.37;;;8.50;5.40;;;;;;4934844;29;20180;-81
2023/05/18 03:18:57;;;;;;;11.43;4.20;;;8.50;4.30;;;;;;4941294;29;20165;-82
2023/05/18 03:21:32;;;;;;;14.07;5.00;;;8.40;4.60;;;;;;4959798;28;20142;-82
2023/05/18 03:23:59;;;;;;;11.13;4.67;;;8.50;6.50;;;;;;4959914;28;20176;-82
2023/05/18 03:26:25;;;;;;;10.63;4.23;;;8.40;6.70;;;;;;4951026;29;20264;-82
2023/05/18 03:28:50;;;;;;;8.37;4.47;;;8.40;8.60;;;;;;4939585;29;20165;-82
2023/05/18 03:31:16;;;;;;;7.40;3.83;;;8.50;8.70;;;;;;4939182;29;20597;-82
2023/05/18 03:33:45;;;;;;;9.17;3.93;;;8.50;6.40;;;;;;4935706;29;20173;-81
2023/05/18 03:36:21;;;;;;;9.13;3.67;;;8.40;7.20;;;;;;4936458;29;20169;-82
2023/05/18 03:38:52;;;;;;;9.90;4.10;;;8.50;6.10;;;;;;4940565;29;20208;-82
2023/05/18 03:41:21;;;;;;;10.37;4.33;;;8.40;4.80;;;;;;4939155;29;20252;-82
2023/05/18 03:43:47;;;;;;;12.13;4.27;;;8.40;3.30;;;;;;4938770;29;20174;-84
2023/05/18 03:46:13;;;;;;;9.43;4.67;;;8.30;6.30;;;;;;4938439;29;20215;-83
2023/05/18 03:48:38;;;;;;;11.83;4.67;;;8.40;7.70;;;;;;4938200;29;20181;-83
2023/05/18 03:51:05;;;;;;;11.43;4.90;;;8.30;6.90;;;;;;4939193;29;20180;-82
2023/05/18 03:53:32;;;;;;;12.10;4.70;;;8.30;7.60;;;;;;4939151;29;20179;-83
2023/05/18 03:55:58;;;;;;;9.37;4.23;;;8.30;8.80;;;;;;4938880;29;20537;-83
2023/05/18 03:58:24;;;;;;;11.50;4.70;;;8.30;8.00;;;;;;4938276;29;20640;-82
2023/05/18 04:00:51;;;;;;;8.57;5.23;;;8.30;10.60;;;;;;4939068;29;20165;-84
2023/05/18 04:03:17;;;;;;;9.27;4.43;;;8.20;11.60;;;;;;4938521;29;20224;-81
2023/05/18 04:05:43;;;;;;;11.63;4.93;;;8.20;11.90;;;;;;4947813;28;20192;-81
2023/05/18 04:08:13;;;;;;;10.53;4.47;;;8.10;14.80;;;;;;4945956;29;20181;-82
2023/05/18 04:10:42;;;;;;;12.73;5.20;;;8.10;14.90;;;;;;4962532;28;20225;-81
2023/05/18 04:13:08;;;;;;;9.60;4.50;;;8.10;13.20;;;;;;4960306;28;20188;-82
2023/05/18 04:15:33;;;;;;;14.53;5.07;;;8.10;14.50;;;;;;4947594;29;20245;-82
2023/05/18 04:18:00;;;;;;;10.03;4.60;;;8.10;15.60;;;;;;4942775;29;20211;-82
2023/05/18 04:20:28;;;;;;;11.23;5.00;;;8.00;12.70;;;;;;4939370;28;20177;-81
2023/05/18 04:22:56;;;;;;;12.00;5.40;;;8.10;14.00;;;;;;4961236;28;20192;-81
2023/05/18 04:25:27;;;;;;;10.93;4.53;;;8.20;11.50;;;;;;4957022;29;20256;-84
2023/05/18 04:27:54;;;;;;;10.13;4.80;;;8.20;8.70;;;;;;4939258;29;20322;-81
2023/05/18 04:30:34;;;;;;;11.23;4.37;;;8.10;9.90;;;;;;4939042;29;20168;-82
2023/05/18 04:33:02;;;;;;;7.87;4.70;;;8.10;11.60;;;;;;4937387;29;20188;-82
2023/05/18 04:35:30;;;;;;;11.93;4.47;;;8.00;12.40;;;;;;4937297;29;20540;-83
2023/05/18 04:37:56;;;;;;;7.63;4.63;;;7.90;15.00;;;;;;4938180;29;20583;-81
2023/05/18 04:40:24;;;;;;;10.87;4.63;;;7.90;16.20;;;;;;4960115;28;20165;-82
2023/05/18 04:42:50;;;;;;;10.27;5.63;;;7.90;21.10;;;;;;4960190;28;20177;-81
2023/05/18 04:45:18;;;;;;;11.40;4.80;;;7.90;19.30;;;;;;4951907;29;20177;-82
2023/05/18 04:47:51;;;;;;;12.20;4.73;;;7.90;19.60;;;;;;4938032;29;20719;-83
2023/05/18 04:50:19;;;;;;;11.00;5.00;;;7.90;20.90;;;;;;4937091;29;20211;-82
2023/05/18 04:52:47;;;;;;;12.97;5.50;;;8.00;19.20;;;;;;4938835;29;20184;-82
2023/05/18 04:55:26;;;;;;;9.57;4.67;;;8.00;16.20;;;;;;4936942;29;20655;-83
2023/05/18 04:57:55;;;;;;;9.67;5.23;;;8.00;14.60;;;;;;4937399;29;20216;-82
2023/05/18 05:00:25;;;;;;;8.33;3.97;;;8.00;12.70;;;;;;4935321;29;20176;-83
2023/05/18 05:02:52;;;;;;;12.27;4.63;;;8.00;11.40;;;;;;4937653;29;20223;-83
2023/05/18 05:05:18;;;;;;;10.73;4.77;;;7.90;14.50;;;;;;4938719;29;20248;-83
2023/05/18 05:07:44;;;;;;;8.33;4.60;;;8.00;14.70;;;;;;4938665;29;20677;-82
2023/05/18 05:10:10;;;;;;;8.77;4.63;;;7.90;15.90;;;;;;4942192;29;20220;-82
2023/05/18 05:12:37;;;;;;;11.73;5.63;;;8.00;14.60;;;;;;4937454;29;20181;-82
2023/05/18 05:15:03;;;;;;;10.53;5.30;;;8.00;15.80;;;;;;4938942;29;20169;-81
2023/05/18 05:17:29;;;;;;;12.97;5.87;;;8.00;11.10;;;;;;4939448;29;20256;-83
2023/05/18 05:19:55;;;;;;;12.87;5.67;;;8.00;10.60;;;;;;4937674;29;20232;-83
2023/05/18 05:22:21;;;;;;;9.63;5.53;;;8.10;10.90;;;;;;4938906;29;20185;-81
2023/05/18 05:24:47;;;;;;;11.23;5.33;;;8.10;8.70;;;;;;4937941;29;20187;-82
2023/05/18 05:27:12;;;;;;;8.17;4.37;;;8.10;8.20;;;;;;4936216;29;20647;-82
2023/05/18 05:29:38;;;;;;;10.50;5.63;;;8.10;7.90;;;;;;4937037;29;20180;-81
2023/05/18 05:32:04;;;;;;;13.77;5.33;;;8.00;10.40;;;;;;4937367;29;20180;-81
2023/05/18 05:34:30;;;;;;;14.30;5.63;;;7.90;11.60;;;;;;4937618;29;20236;-81
2023/05/18 05:36:57;;;;;;;8.20;5.53;;;7.90;11.30;;;;;;4937218;29;20185;-81
2023/05/18 05:39:22;;;;;;;12.70;5.70;;;7.90;12.20;;;;;;4937371;29;20169;-83
2023/05/18 05:41:48;;;;;;;12.53;5.90;;;7.90;11.50;;;;;;4937304;29;20184;-82
2023/05/18 05:44:14;;;;;;;10.37;5.57;;;7.90;11.80;;;;;;4938577;29;20168;-81
2023/05/18 05:46:39;;;;;;;12.37;5.80;;;7.90;11.00;;;;;;4935897;29;20580;-82
2023/05/18 05:49:05;;;;;;;10.50;5.67;;;7.90;13.70;;;;;;4936824;29;20633;-81
2023/05/18 05:51:31;;;;;;;11.37;5.50;;;8.00;14.20;;;;;;4938114;29;20200;-83
2023/05/18 05:53:56;;;;;;;10.83;4.90;;;8.00;11.30;;;;;;4937026;29;20177;-81
2023/05/18 05:56:23;;;;;;;16.33;5.90;;;7.90;9.90;;;;;;4936907;29;20728;-82
2023/05/18 05:58:49;;;;;;;8.50;5.27;;;8.00;8.30;;;;;;4938276;29;20179;-84
2023/05/18 06:01:15;;;;;;;11.77;5.57;;;8.00;7.40;;;;;;4935582;29;20653;-83
2023/05/18 06:03:43;;;;;;;11.47;5.67;;;8.00;9.80;;;;;;4937703;29;20181;-83
2023/05/18 06:06:10;;;;;;;9.30;5.43;;;8.00;8.20;;;;;;4938983;29;20200;-82
2023/05/18 06:08:35;;;;;;;13.43;5.60;;;8.10;7.00;;;;;;4937328;29;20204;-84
2023/05/18 06:11:01;;;;;;;17.03;6.43;;;8.10;5.40;;;;;;4936920;29;20213;-83
2023/05/18 06:13:27;;;;;;;12.63;6.17;;;8.10;5.70;;;;;;4937026;29;20177;-82
2023/05/18 06:15:52;;;;;;;7.70;5.30;;;8.20;3.10;;;;;;4940777;29;20220;-82
2023/05/18 06:18:18;;;;;;;13.40;5.37;;;8.10;2.40;;;;;;4944777;29;20184;-81
2023/05/18 06:20:45;;;;;;;12.17;5.63;;;8.20;4.20;;;;;;4939051;29;20257;-82
2023/05/18 06:23:11;;;;;;;13.97;6.07;;;8.20;2.30;;;;;;4941369;29;20243;-83
2023/05/18 06:25:36;;;;;;;11.60;5.93;;;8.30;1.80;;;;;;4943102;29;20177;-82
2023/05/18 06:28:09;;;;;;;11.57;6.10;;;8.40;1.00;;;;;;4941088;29;20185;-85
2023/05/18 06:30:36;;;;;;;11.47;5.60;;;8.30;1.00;;;;;;4941348;29;20177;-84
2023/05/18 06:33:02;;;;;;;12.30;5.90;;;8.30;1.00;;;;;;4943188;29;20184;-84
2023/05/18 06:35:28;;;;;;;14.77;5.97;;;8.40;1.00;;;;;;4942438;29;20193;-83
2023/05/18 06:37:54;;;;;;;15.47;6.10;;;8.40;1.00;;;;;;4940926;29;20169;-81
2023/05/18 06:40:20;;;;;;;11.50;6.10;;;8.30;1.00;;;;;;4939098;29;20177;-82
2023/05/18 06:42:45;;;;;;;10.73;5.37;;;8.40;1.00;;;;;;4939914;29;20638;-84
2023/05/18 06:45:11;;;;;;;10.33;5.70;;;8.50;1.00;;;;;;4939415;29;20192;-83
2023/05/18 06:47:37;;;;;;;13.73;5.63;;;8.50;1.00;;;;;;4940283;29;20236;-84
2023/05/18 06:50:04;;;;;;;9.50;5.60;;;8.50;1.00;;;;;;4939448;29;20184;-83
2023/05/18 06:52:30;;;;;;;9.00;5.30;;;8.50;1.00;;;;;;4941043;29;20180;-81
2023/05/18 06:54:56;;;;;;;10.40;5.23;;;8.50;1.00;;;;;;4943882;29;20189;-83
2023/05/18 06:57:22;;;;;;;13.03;6.07;;;8.60;1.00;;;;;;4943755;29;20188;-83
2023/05/18 06:59:52;;;;;;;11.40;6.20;;;8.70;1.00;;;;;;4942695;29;20271;-84
2023/05/18 07:02:19;;;;;;;14.87;6.60;;;8.70;1.00;;;;;;4942087;29;20204;-84
2023/05/18 07:04:45;;;;;;;8.10;6.10;;;8.80;1.00;;;;;;4938614;29;20165;-84
2023/05/18 07:07:11;;;;;;;12.10;5.67;;;8.70;1.00;;;;;;4952560;28;20212;-85
2023/05/18 07:09:38;;;;;;;13.10;6.73;;;8.80;1.00;;;;;;4959032;28;20237;-82
2023/05/18 07:12:04;;;;;;;14.47;6.33;;;8.70;1.00;;;;;;4958940;29;20186;-84
2023/05/18 07:14:35;;;;;;;14.47;6.30;;;8.80;1.00;;;;;;4946681;29;20216;-81
2023/05/18 07:17:01;;;;;;;11.23;6.13;;;8.90;1.00;;;;;;4942205;29;20238;-82
2023/05/18 07:19:27;;;;;;;9.60;6.20;;;9.00;1.00;;;;;;4947002;29;20168;-84
2023/05/18 07:21:52;;;;;;;12.40;6.63;;;9.10;1.00;;;;;;4956201;29;20177;-81
2023/05/18 07:24:18;;;;;;;15.17;6.87;;;9.20;1.00;;;;;;4961600;28;20173;-79
2023/05/18 07:26:45;;;;;;;15.60;6.00;;;9.20;1.00;;;;;;4962396;28;20213;-82
2023/05/18 07:29:10;;;;;;;10.07;6.63;;;9.10;1.00;;;;;;4962910;28;20181;-83
2023/05/18 07:31:39;;;;;;;12.27;6.03;;;9.20;1.00;;;;;;4962543;28;20664;-81
2023/05/18 07:34:08;;;;;;;14.03;6.67;;;9.30;1.00;;;;;;4961645;29;20173;-82
2023/05/18 07:36:35;;;;;;;13.13;6.00;;;9.30;1.00;;;;;;4955238;29;20185;-82
2023/05/18 07:39:02;;;;;;;10.73;6.53;;;9.40;1.00;;;;;;4956732;29;20204;-82
2023/05/18 07:41:30;;;;;;;8.40;5.80;;;9.40;1.00;;;;;;4955320;29;20730;-81
2023/05/18 07:43:59;;;;;;;14.97;7.03;;;9.60;1.00;;;;;;4955083;29;20176;-82
2023/05/18 07:46:25;;;;;;;10.60;6.03;;;9.70;1.00;;;;;;4953929;28;20224;-80
2023/05/18 07:48:53;;;;;;;15.33;9.50;;;9.80;1.00;;;;;;4954318;28;20189;-81
2023/05/18 07:51:22;;;;;;;11.07;6.90;;;9.90;1.00;;;;;;4960570;28;20165;-82
2023/05/18 07:53:49;;;;;;;12.90;6.97;;;10.00;1.00;;;;;;4958495;28;20185;-82
2023/05/18 07:56:18;;;;;;;11.20;6.27;;;10.10;1.00;;;;;;4951354;29;20193;-82
2023/05/18 07:58:43;;;;;;;9.80;7.00;;;10.10;1.00;;;;;;4948741;29;20169;-81
2023/05/18 08:01:09;;;;;;;12.50;6.57;;;10.20;1.00;;;;;;4943193;29;20212;-83
2023/05/18 08:03:35;;;;;;;11.37;6.50;;;10.30;1.00;;;;;;4936834;29;20192;-81
2023/05/18 08:06:01;;;;;;;11.50;7.33;;;10.30;1.00;;;;;;4941146;29;20573;-84
2023/05/18 08:08:30;;;;;;;14.67;6.87;;;10.30;1.00;;;;;;4944498;29;20189;-82
2023/05/18 08:10:57;;;;;;;12.13;6.67;;;10.60;1.00;;;;;;4946872;29;20189;-81
2023/05/18 08:13:24;;;;;;;13.70;6.87;;;10.70;1.00;;;;;;4945500;29;20180;-83
2023/05/18 08:15:50;;;;;;;12.10;7.00;;;10.70;1.00;;;;;;4949336;29;20175;-83
2023/05/18 08:18:15;;;;;;;15.33;7.27;;;10.70;1.00;;;;;;4954575;29;20176;-81
2023/05/18 08:20:42;;;;;;;13.33;6.93;;;10.80;1.00;;;;;;4955732;29;20641;-83
2023/05/18 08:23:08;;;;;;;14.10;6.67;;;11.00;1.00;;;;;;4955810;28;20204;-82
2023/05/18 08:25:34;;;;;;;11.73;6.67;;;11.20;1.00;;;;;;4958965;29;20632;-84
2023/05/18 08:28:00;;;;;;;14.00;6.30;;;11.30;1.00;;;;;;4957519;28;20677;-83
2023/05/18 08:30:26;;;;;;;11.77;6.17;;;11.40;1.00;;;;;;4946311;28;20185;-83
2023/05/18 08:32:51;;;;;;;11.40;6.67;;;11.60;1.00;;;;;;4936466;29;20642;-82
2023/05/18 08:35:17;;;;;;;15.20;6.97;;;11.80;1.00;;;;;;4967267;28;20181;-82
2023/05/18 08:37:43;;;;;;;13.43;6.93;;;11.80;1.00;;;;;;4935241;29;20630;-81
2023/05/18 08:40:10;;;;;;;10.90;6.33;;;11.90;1.00;;;;;;4937957;29;20181;-83
2023/05/18 08:42:44;;;;;;;13.40;6.50;;;12.00;1.00;;;;;;4939529;29;20181;-84
2023/05/18 08:45:46;;;;;;;14.20;6.77;;;12.10;1.00;;;;;;4941919;29;20177;-82
2023/05/18 08:48:16;;;;;;;12.90;6.10;;;12.20;1.00;;;;;;4938534;29;20189;-82
2023/05/18 08:50:44;;;;;;;9.97;6.57;;;12.30;1.00;;;;;;4939342;29;20181;-84
2023/05/18 08:53:11;;;;;;;14.70;6.23;;;12.40;1.00;;;;;;4940578;29;20665;-83
2023/05/18 08:55:37;;;;;;;13.47;6.17;;;12.50;1.00;;;;;;4938671;29;20272;-82
2023/05/18 08:58:06;;;;;;;10.97;6.20;;;12.60;1.00;;;;;;4938100;29;20612;-83
2023/05/18 09:00:32;;;;;;;9.47;5.37;;;12.50;1.00;;;;;;4938036;29;20184;-84
2023/05/18 09:02:58;;;;;;;10.30;6.20;;;12.60;1.00;;;;;;4936723;29;20827;-83
2023/05/18 09:05:24;;;;;;;11.90;6.00;;;12.70;1.00;;;;;;4937941;29;20190;-83
2023/05/18 09:07:53;;;;;;;10.37;5.93;;;12.90;1.00;;;;;;4936967;29;20221;-81
2023/05/18 09:10:21;;;;;;;11.20;5.90;;;12.90;1.00;;;;;;4938299;29;20498;-83
2023/05/18 09:12:49;;;;;;;11.30;6.63;;;12.80;1.00;;;;;;4937182;29;20194;-86
2023/05/18 09:15:16;;;;;;;9.80;5.90;;;12.90;1.00;;;;;;4936411;29;20188;-83
2023/05/18 09:17:42;;;;;;;11.67;6.33;;;12.90;1.00;;;;;;4936106;29;20209;-84
2023/05/18 09:20:09;;;;;;;11.17;5.00;;;13.10;1.00;;;;;;4941182;29;20181;-82
2023/05/18 09:22:35;;;;;;;11.43;6.10;;;13.20;1.00;;;;;;4936801;29;20186;-83
2023/05/18 09:25:07;;;;;;;8.80;4.93;;;13.20;1.00;;;;;;4937129;29;20309;-81
2023/05/18 09:27:32;;;;;;;11.17;5.33;;;13.30;1.00;;;;;;4942537;29;20218;-84
2023/05/18 09:29:58;;;;;;;10.63;5.40;;;13.30;1.00;;;;;;4938863;29;20186;-83
2023/05/18 09:32:25;;;;;;;9.30;4.30;;;13.20;1.00;;;;;;4938628;29;20176;-86
2023/05/18 09:34:52;;;;;;;11.17;5.20;;;13.10;1.00;;;;;;4939637;29;20666;-84
2023/05/18 09:37:19;;;;;;;10.30;4.97;;;13.30;1.00;;;;;;4938096;29;20267;-83
2023/05/18 09:40:00;;;;;;;11.73;5.40;;;13.50;1.00;;;;;;4939449;29;20170;-82
2023/05/18 09:42:32;;;;;;;10.17;4.80;;;13.60;1.00;;;;;;4936940;29;20202;-83
2023/05/18 09:44:58;;;;;;;10.50;4.30;;;13.50;1.00;;;;;;4934285;29;20188;-82
2023/05/18 09:47:26;;;;;;;12.43;3.43;;;13.60;1.00;;;;;;4937195;29;20220;-83
2023/05/18 09:49:51;;;;;;;12.53;6.07;;;13.60;99.90;;;;;;4934822;29;20188;-82
2023/05/18 09:52:17;;;;;;;10.13;3.83;;;13.80;1.00;;;;;;4935657;29;20239;-83
2023/05/18 09:54:51;;;;;;;7.50;3.47;;;14.10;99.90;;;;;;4936139;29;20230;-83
2023/05/18 09:57:20;;;;;;;10.13;3.53;;;14.20;99.90;;;;;;4934884;29;20177;-82
2023/05/18 09:59:54;;;;;;;8.57;4.10;;;14.10;99.90;;;;;;4946456;28;20157;-82
2023/05/18 10:02:23;;;;;;;8.83;3.80;;;14.20;99.90;;;;;;4955876;28;20212;-81
2023/05/18 10:04:49;;;;;;;9.77;4.33;;;14.20;99.90;;;;;;4940050;29;20221;-83
2023/05/18 10:07:18;;;;;;;9.80;4.17;;;13.90;99.90;;;;;;4951998;28;20204;-82
2023/05/18 10:09:45;;;;;;;10.63;4.57;;;14.10;99.90;;;;;;4959901;28;20173;-82
2023/05/18 10:12:20;;;;;;;8.10;4.27;;;14.30;99.90;;;;;;4958111;28;20340;-83
2023/05/18 10:14:45;;;;;;;8.83;4.77;;;14.40;99.90;;;;;;4948935;29;20510;-83
2023/05/18 10:17:12;;;;;;;10.60;5.07;;;14.60;99.90;;;;;;4939767;29;20649;-83
2023/05/18 10:19:43;;;;;;;8.77;5.00;;;14.50;99.90;;;;;;4946621;28;20181;-83
2023/05/18 10:22:09;;;;;;;9.00;4.83;;;14.30;99.90;;;;;;4960259;28;20182;-82
2023/05/18 10:24:41;;;;;;;8.90;4.27;;;13.90;99.90;;;;;;4951191;28;20188;-83
2023/05/18 10:27:13;;;;;;;12.07;5.23;;;13.90;99.90;;;;;;4941908;29;20216;-82
2023/05/18 10:29:41;;;;;;;13.83;5.73;;;13.80;99.90;;;;;;4937447;29;20167;-84
2023/05/18 10:32:11;;;;;;;9.70;5.47;;;14.00;99.90;;;;;;4936144;29;20235;-83
2023/05/18 10:34:38;;;;;;;11.83;4.70;;;14.30;99.90;;;;;;4935724;29;20556;-86
2023/05/18 10:37:05;;;;;;;10.03;4.67;;;14.40;99.90;;;;;;4938187;29;20176;-83
2023/05/18 10:39:35;;;;;;;9.30;4.80;;;14.20;99.90;;;;;;4936650;29;20183;-85
2023/05/18 10:42:03;;;;;;;12.53;4.57;;;14.40;99.90;;;;;;4937005;29;20707;-82
2023/05/18 10:44:30;;;;;;;10.13;4.50;;;14.70;99.90;;;;;;4937759;29;20205;-83
2023/05/18 10:46:55;;;;;;;9.50;4.03;;;14.70;99.90;;;;;;4936212;29;20737;-84
2023/05/18 10:49:24;;;;;;;7.37;4.30;;;14.50;99.90;;;;;;4935761;29;20207;-83
2023/05/18 10:51:55;;;;;;;9.63;4.67;;;14.40;99.90;;;;;;4946911;29;20177;-81
2023/05/18 10:54:23;;;;;;;11.77;4.30;;;14.50;99.90;;;;;;4954311;28;20176;-82
2023/05/18 10:56:52;;;;;;;10.10;4.50;;;14.70;99.90;;;;;;4957915;28;20173;-83
2023/05/18 10:59:19;;;;;;;10.30;4.20;;;14.70;99.90;;;;;;4957043;29;20227;-81
2023/05/18 11:01:47;;;;;;;9.10;4.27;;;14.70;99.90;;;;;;4948722;29;20231;-81
2023/05/18 11:04:21;;;;;;;10.43;4.47;;;14.50;99.90;;;;;;4943208;29;20280;-84
2023/05/18 11:06:56;;;;;;;8.83;4.00;;;14.60;99.90;;;;;;4955993;29;20579;-83
2023/05/18 11:09:23;;;;;;;10.83;5.20;;;14.60;99.90;;;;;;4954827;29;20195;-86
2023/05/18 11:11:55;;;;;;;6.83;4.10;;;14.60;99.90;;;;;;4954165;29;20671;-83
2023/05/18 11:14:30;;;;;;;8.10;4.87;;;14.70;99.90;;;;;;4955037;29;20569;-83
2023/05/18 11:17:21;;;;;;;9.33;4.83;;;14.70;99.90;;;;;;4954572;29;20278;-83
2023/05/18 11:20:06;;;;;;;10.03;5.07;;;14.70;99.90;;;;;;4955528;28;20187;-82
2023/05/18 11:22:57;;;;;;;10.10;4.87;;;15.10;99.90;;;;;;4954016;29;20189;-84
2023/05/18 11:25:23;;;;;;;7.10;4.00;;;15.40;99.90;;;;;;4954891;29;20278;-83
2023/05/18 11:27:53;;;;;;;7.67;4.00;;;15.30;99.90;;;;;;4953771;29;20631;-84
2023/05/18 11:30:27;;;;;;;7.80;4.53;;;15.30;99.90;;;;;;4955173;29;20180;-84
2023/05/18 11:33:13;;;;;;;11.13;5.20;;;14.90;99.90;;;;;;4955705;28;20641;-83
2023/05/18 11:36:10;;;;;;;8.10;4.70;;;14.60;99.90;;;;;;4955390;29;20168;-84
2023/05/18 11:39:01;;;;;;;9.17;4.80;;;14.80;99.90;;;;;;4954927;29;20172;-83
2023/05/18 11:41:43;;;;;;;6.70;4.30;;;15.00;99.90;;;;;;4954209;29;20193;-83
2023/05/18 11:44:13;;;;;;;9.43;5.13;;;14.90;99.90;;;;;;4956542;28;20175;-82
2023/05/18 11:46:57;;;;;;;11.93;5.03;;;14.80;99.90;;;;;;4955227;29;20718;-84
2023/05/18 11:49:35;;;;;;;8.83;4.93;;;14.80;99.90;;;;;;4954744;29;20183;-83
2023/05/18 11:52:13;;;;;;;9.80;5.00;;;14.70;99.90;;;;;;4954466;29;20184;-83
2023/05/18 11:54:49;;;;;;;10.97;5.47;;;14.80;99.90;;;;;;4957434;29;20180;-82
2023/05/18 11:57:17;;;;;;;8.63;4.60;;;14.90;99.90;;;;;;4957796;28;20181;-83
2023/05/18 11:59:45;;;;;;;10.67;5.07;;;15.20;99.90;;;;;;4960742;29;20172;-83
2023/05/18 12:02:17;;;;;;;9.37;4.50;;;15.10;99.90;;;;;;4958590;29;20695;-82
2023/05/18 12:04:50;;;;;;;12.27;4.83;;;15.20;99.90;;;;;;4958786;29;20172;-82
2023/05/18 12:07:18;;;;;;;10.90;4.80;;;15.30;99.90;;;;;;4958549;29;20222;-84
2023/05/18 12:09:45;;;;;;;9.03;4.37;;;15.20;1.00;;;;;;4958106;29;20183;-84
2023/05/18 12:12:16;;;;;;;8.30;4.37;;;15.20;1.00;;;;;;4959738;29;20294;-82
2023/05/18 12:14:48;;;;;;;9.50;4.40;;;15.30;1.00;;;;;;4960368;29;20177;-82
2023/05/18 12:17:14;;;;;;;9.30;4.87;;;15.40;1.00;;;;;;4962318;28;20188;-82
2023/05/18 12:19:46;;;;;;;10.47;4.90;;;15.50;1.00;;;;;;4962308;29;20181;-82
2023/05/18 12:22:12;;;;;;;9.67;4.90;;;15.40;1.00;;;;;;4959885;29;20180;-84
2023/05/18 12:24:39;;;;;;;9.97;4.77;;;15.50;1.00;;;;;;4959044;29;20188;-83
2023/05/18 12:27:06;;;;;;;11.83;4.87;;;15.50;99.40;;;;;;4960390;29;20219;-82
2023/05/18 12:29:32;;;;;;;11.90;5.37;;;15.70;49.30;;;;;;4961104;28;20180;-82
2023/05/18 12:32:05;;;;;;;13.07;4.63;;;15.80;24.40;;;;;;4961236;28;20180;-83
2023/05/18 12:34:34;;;;;;;12.47;5.33;;;15.70;1.00;;;;;;4964308;28;20176;-83
2023/05/18 12:37:00;;;;;;;7.63;4.63;;;16.00;91.10;;;;;;4969938;29;20170;-83
2023/05/18 12:39:26;;;;;;;9.60;5.00;;;16.20;1.00;;;;;;4975119;29;20200;-83
2023/05/18 12:41:51;;;;;;;13.20;5.43;;;16.10;1.00;;;;;;4977870;29;20189;-82
2023/05/18 12:44:17;;;;;;;7.53;4.70;;;16.20;1.00;;;;;;4965974;28;20200;-82
2023/05/18 12:46:43;;;;;;;10.27;5.07;;;16.10;99.90;;;;;;4964906;29;20628;-82
2023/05/18 12:49:09;;;;;;;9.07;5.10;;;16.10;1.00;;;;;;4960756;29;20539;-83
2023/05/18 12:51:38;;;;;;;11.20;5.10;;;16.10;1.00;;;;;;4975143;28;20184;-82
2023/05/18 12:54:05;;;;;;;9.73;4.87;;;16.10;99.90;;;;;;4974684;28;20277;-82
2023/05/18 12:57:00;;;;;;;9.77;4.83;;;15.90;1.00;;;;;;4962918;29;20259;-82
2023/05/18 12:59:29;;;;;;;10.80;5.70;;;15.90;1.00;;;;;;4958682;28;20171;-83
2023/05/18 13:01:55;;;;;;;8.83;5.47;;;15.70;1.00;;;;;;4959087;29;20184;-82